首页
METAR-TAF:

METAR-TAF

机场 :

尼亞加拉瀑布城, 紐約州, 美国

纬度: 43-06-26N, 经度: 078-56-43W, 海拔: 180米

当前天气观测

该预报发布于44分钟前的19:53 UTC
风速6节,风向南转西南
温度 27°C
湿度 48%
气压 1014 hPa
能見度: 16.1公里
少量云层高于5000英尺

METAR: KIAG 031953Z 20006KT 10SM FEW050 27/15 A2995 RMK AO2 SLP139 T02720150

时间: 16:37 (20:37 UTC)

预报

该预报发布于2小时和57分钟前的17:40 UTC
预报有效从03日的 18点(UTC)到 04日的 18点(UTC)
风速8节,风向西南
能見度: 10公里
多云层高于3500英尺
从 03日的 2200点(UTC)
风速5节,风向西南
能見度: 10公里
多云层高于5000英尺, 积雨云.
小阵雨, 附近有雷暴
从 04日的 0200点(UTC)
风速4节,风向
能見度: 10公里
多云层高于4000英尺
附近有阵雨
从 04日的 0700点(UTC)
风速3节,风向多变
能見度: 10公里
阴天层高于6000英尺
从 04日的 1400点(UTC)
风速5节,风向西南
能見度: 10公里
阴天层高于2500英尺
附近有阵雨

TAF: KIAG 031740Z 0318/0418 23008KT P6SM BKN035 FM032200 23005KT P6SM -SHRA VCTS BKN050CB FM040200 17004KT P6SM VCSH BKN040 FM040700 VRB03KT P6SM OVC060 FM041400 22005KT P6SM VCSH OVC025

超过4000个机场的气象观测和天气预报(METAR&TAF报告)。

可查询的气象台以黄色和红色小点在地图上表示。

将鼠标移到小点上方,可查看气象台名称。

然后点击查看天气观测和预报。

如需切换地图:点击带黑十字的绿色按钮放大地图;点击带横线的绿色按钮缩小地图;或者点击绿色箭头查看邻近地区的地图。


METAR-TAF: